sensor_id;sensor_type;location;lat;lon;timestamp;temperature;humidity
59128;DHT22;44912;52.754;5.994;2024-02-15T00:00:28;11.60;99.90
59128;DHT22;44912;52.754;5.994;2024-02-15T00:02:53;11.60;99.90
59128;DHT22;44912;52.754;5.994;2024-02-15T00:05:19;11.70;99.90
59128;DHT22;44912;52.754;5.994;2024-02-15T00:07:45;11.60;99.90
59128;DHT22;44912;52.754;5.994;2024-02-15T00:10:13;11.60;99.90
59128;DHT22;44912;52.754;5.994;2024-02-15T00:12:39;11.60;99.90
59128;DHT22;44912;52.754;5.994;2024-02-15T00:15:05;11.70;99.90
59128;DHT22;44912;52.754;5.994;2024-02-15T00:17:31;11.70;99.90
59128;DHT22;44912;52.754;5.994;2024-02-15T00:19:57;11.70;99.90
59128;DHT22;44912;52.754;5.994;2024-02-15T00:22:23;11.70;99.90
59128;DHT22;44912;52.754;5.994;2024-02-15T00:27:21;11.70;99.90
59128;DHT22;44912;52.754;5.994;2024-02-15T00:29:46;11.70;99.90
59128;DHT22;44912;52.754;5.994;2024-02-15T00:32:12;11.70;99.90
59128;DHT22;44912;52.754;5.994;2024-02-15T00:34:37;11.80;99.90
59128;DHT22;44912;52.754;5.994;2024-02-15T00:37:06;11.80;99.90
59128;DHT22;44912;52.754;5.994;2024-02-15T00:39:32;11.70;99.90
59128;DHT22;44912;52.754;5.994;2024-02-15T00:41:58;11.70;99.90
59128;DHT22;44912;52.754;5.994;2024-02-15T00:44:26;11.70;99.90
59128;DHT22;44912;52.754;5.994;2024-02-15T00:46:51;11.70;99.90
59128;DHT22;44912;52.754;5.994;2024-02-15T00:49:17;11.80;99.90
59128;DHT22;44912;52.754;5.994;2024-02-15T00:51:46;11.80;99.90
59128;DHT22;44912;52.754;5.994;2024-02-15T00:54:12;11.70;99.90
59128;DHT22;44912;52.754;5.994;2024-02-15T00:56:37;11.80;99.90
59128;DHT22;44912;52.754;5.994;2024-02-15T00:59:03;11.70;99.90
59128;DHT22;44912;52.754;5.994;2024-02-15T01:01:30;11.80;99.90
59128;DHT22;44912;52.754;5.994;2024-02-15T01:03:56;11.70;99.90
59128;DHT22;44912;52.754;5.994;2024-02-15T01:06:22;11.80;99.90
59128;DHT22;44912;52.754;5.994;2024-02-15T01:08:47;11.80;99.90
59128;DHT22;44912;52.754;5.994;2024-02-15T01:11:13;11.80;99.90
59128;DHT22;44912;52.754;5.994;2024-02-15T01:13:39;11.70;99.90
59128;DHT22;44912;52.754;5.994;2024-02-15T01:16:06;11.70;99.90
59128;DHT22;44912;52.754;5.994;2024-02-15T01:18:32;11.80;99.90
59128;DHT22;44912;52.754;5.994;2024-02-15T01:20:58;11.80;99.90
59128;DHT22;44912;52.754;5.994;2024-02-15T01:23:24;11.80;99.90
59128;DHT22;44912;52.754;5.994;2024-02-15T01:25:50;11.80;99.90
59128;DHT22;44912;52.754;5.994;2024-02-15T01:28:15;11.70;99.90
59128;DHT22;44912;52.754;5.994;2024-02-15T01:30:41;11.80;99.90
59128;DHT22;44912;52.754;5.994;2024-02-15T01:33:09;11.80;99.90
59128;DHT22;44912;52.754;5.994;2024-02-15T01:35:36;11.80;99.90
59128;DHT22;44912;52.754;5.994;2024-02-15T01:38:02;11.80;99.90
59128;DHT22;44912;52.754;5.994;2024-02-15T01:40:28;11.80;99.90
59128;DHT22;44912;52.754;5.994;2024-02-15T01:42:53;11.80;99.90
59128;DHT22;44912;52.754;5.994;2024-02-15T01:45:20;11.80;99.90
59128;DHT22;44912;52.754;5.994;2024-02-15T01:47:48;11.80;99.90
59128;DHT22;44912;52.754;5.994;2024-02-15T01:50:14;11.80;99.90
59128;DHT22;44912;52.754;5.994;2024-02-15T01:52:43;11.80;99.90
59128;DHT22;44912;52.754;5.994;2024-02-15T01:55:13;11.80;99.90
59128;DHT22;44912;52.754;5.994;2024-02-15T01:57:43;11.80;99.90
59128;DHT22;44912;52.754;5.994;2024-02-15T02:00:10;11.80;99.90
59128;DHT22;44912;52.754;5.994;2024-02-15T02:02:39;11.80;99.90
59128;DHT22;44912;52.754;5.994;2024-02-15T02:05:06;11.80;99.90
59128;DHT22;44912;52.754;5.994;2024-02-15T02:07:33;11.80;99.90
59128;DHT22;44912;52.754;5.994;2024-02-15T02:09:59;11.80;99.90
59128;DHT22;44912;52.754;5.994;2024-02-15T02:12:24;11.80;99.90
59128;DHT22;44912;52.754;5.994;2024-02-15T02:14:53;11.80;99.90
59128;DHT22;44912;52.754;5.994;2024-02-15T02:17:19;11.80;99.90
59128;DHT22;44912;52.754;5.994;2024-02-15T02:19:45;11.80;99.90
59128;DHT22;44912;52.754;5.994;2024-02-15T02:22:12;11.80;99.90
59128;DHT22;44912;52.754;5.994;2024-02-15T02:25:04;11.80;99.90
59128;DHT22;44912;52.754;5.994;2024-02-15T02:27:32;11.80;99.90
59128;DHT22;44912;52.754;5.994;2024-02-15T02:29:58;11.80;99.90
59128;DHT22;44912;52.754;5.994;2024-02-15T02:32:28;11.80;99.90
59128;DHT22;44912;52.754;5.994;2024-02-15T02:34:53;11.80;99.90
59128;DHT22;44912;52.754;5.994;2024-02-15T02:37:26;11.80;99.90
59128;DHT22;44912;52.754;5.994;2024-02-15T02:39:52;11.80;99.90
59128;DHT22;44912;52.754;5.994;2024-02-15T02:42:17;11.80;99.90
59128;DHT22;44912;52.754;5.994;2024-02-15T02:44:43;11.90;99.90
59128;DHT22;44912;52.754;5.994;2024-02-15T02:47:10;11.90;99.90
59128;DHT22;44912;52.754;5.994;2024-02-15T02:49:36;11.90;99.90
59128;DHT22;44912;52.754;5.994;2024-02-15T02:52:02;11.90;99.90
59128;DHT22;44912;52.754;5.994;2024-02-15T02:54:28;11.90;99.90
59128;DHT22;44912;52.754;5.994;2024-02-15T02:56:54;11.90;99.90
59128;DHT22;44912;52.754;5.994;2024-02-15T02:59:20;11.90;99.90
59128;DHT22;44912;52.754;5.994;2024-02-15T03:01:47;12.00;99.90
59128;DHT22;44912;52.754;5.994;2024-02-15T03:04:15;11.90;99.90
59128;DHT22;44912;52.754;5.994;2024-02-15T03:06:45;12.00;99.90
59128;DHT22;44912;52.754;5.994;2024-02-15T03:09:12;12.00;99.90
59128;DHT22;44912;52.754;5.994;2024-02-15T03:11:40;12.00;99.90
59128;DHT22;44912;52.754;5.994;2024-02-15T03:14:06;12.00;99.90
59128;DHT22;44912;52.754;5.994;2024-02-15T03:16:32;12.00;99.90
59128;DHT22;44912;52.754;5.994;2024-02-15T03:18:58;12.00;99.90
59128;DHT22;44912;52.754;5.994;2024-02-15T03:21:23;12.00;99.90
59128;DHT22;44912;52.754;5.994;2024-02-15T03:23:50;12.00;99.90
59128;DHT22;44912;52.754;5.994;2024-02-15T03:26:15;12.00;99.90
59128;DHT22;44912;52.754;5.994;2024-02-15T03:28:41;12.00;99.90
59128;DHT22;44912;52.754;5.994;2024-02-15T03:31:07;12.00;99.90
59128;DHT22;44912;52.754;5.994;2024-02-15T03:33:33;12.00;99.90
59128;DHT22;44912;52.754;5.994;2024-02-15T03:36:00;12.00;99.90
59128;DHT22;44912;52.754;5.994;2024-02-15T03:38:27;12.00;99.90
59128;DHT22;44912;52.754;5.994;2024-02-15T03:40:55;12.00;99.90
59128;DHT22;44912;52.754;5.994;2024-02-15T03:43:21;12.00;99.90
59128;DHT22;44912;52.754;5.994;2024-02-15T03:45:49;12.00;99.90
59128;DHT22;44912;52.754;5.994;2024-02-15T03:48:14;12.00;99.90
59128;DHT22;44912;52.754;5.994;2024-02-15T03:50:41;12.00;99.90
59128;DHT22;44912;52.754;5.994;2024-02-15T03:53:09;12.00;99.90
59128;DHT22;44912;52.754;5.994;2024-02-15T03:55:34;12.00;99.90
59128;DHT22;44912;52.754;5.994;2024-02-15T03:58:01;12.00;99.90
59128;DHT22;44912;52.754;5.994;2024-02-15T04:00:27;11.90;99.90
59128;DHT22;44912;52.754;5.994;2024-02-15T04:02:53;12.00;99.90
59128;DHT22;44912;52.754;5.994;2024-02-15T04:05:19;12.00;99.90
59128;DHT22;44912;52.754;5.994;2024-02-15T04:07:47;11.90;99.90
59128;DHT22;44912;52.754;5.994;2024-02-15T04:10:13;12.00;99.90
59128;DHT22;44912;52.754;5.994;2024-02-15T04:12:39;11.90;99.90
59128;DHT22;44912;52.754;5.994;2024-02-15T04:15:07;12.00;99.90
59128;DHT22;44912;52.754;5.994;2024-02-15T04:17:37;12.00;99.90
59128;DHT22;44912;52.754;5.994;2024-02-15T04:20:04;12.00;99.90
59128;DHT22;44912;52.754;5.994;2024-02-15T04:22:32;11.90;99.90
59128;DHT22;44912;52.754;5.994;2024-02-15T04:25:03;11.90;99.90
59128;DHT22;44912;52.754;5.994;2024-02-15T04:27:29;12.00;99.90
59128;DHT22;44912;52.754;5.994;2024-02-15T04:29:54;11.90;99.90
59128;DHT22;44912;52.754;5.994;2024-02-15T04:32:21;11.90;99.90
59128;DHT22;44912;52.754;5.994;2024-02-15T04:34:46;11.90;99.90
59128;DHT22;44912;52.754;5.994;2024-02-15T04:37:12;11.90;99.90
59128;DHT22;44912;52.754;5.994;2024-02-15T04:39:38;11.90;99.90
59128;DHT22;44912;52.754;5.994;2024-02-15T04:42:05;12.00;99.90
59128;DHT22;44912;52.754;5.994;2024-02-15T04:44:38;11.90;99.90
59128;DHT22;44912;52.754;5.994;2024-02-15T04:47:05;11.90;99.90
59128;DHT22;44912;52.754;5.994;2024-02-15T04:49:30;11.90;99.90
59128;DHT22;44912;52.754;5.994;2024-02-15T04:51:56;11.90;99.90
59128;DHT22;44912;52.754;5.994;2024-02-15T04:54:23;12.00;99.90
59128;DHT22;44912;52.754;5.994;2024-02-15T04:56:48;11.90;99.90
59128;DHT22;44912;52.754;5.994;2024-02-15T04:59:18;12.00;99.90
59128;DHT22;44912;52.754;5.994;2024-02-15T05:01:45;12.00;99.90
59128;DHT22;44912;52.754;5.994;2024-02-15T05:04:11;11.90;99.90
59128;DHT22;44912;52.754;5.994;2024-02-15T05:06:38;12.00;99.90
59128;DHT22;44912;52.754;5.994;2024-02-15T05:09:04;11.90;99.90
59128;DHT22;44912;52.754;5.994;2024-02-15T05:11:33;11.90;99.90
59128;DHT22;44912;52.754;5.994;2024-02-15T05:14:02;11.90;99.90
59128;DHT22;44912;52.754;5.994;2024-02-15T05:16:30;11.90;99.90
59128;DHT22;44912;52.754;5.994;2024-02-15T05:18:57;11.90;99.90
59128;DHT22;44912;52.754;5.994;2024-02-15T05:21:22;11.90;99.90
59128;DHT22;44912;52.754;5.994;2024-02-15T05:23:48;11.90;99.90
59128;DHT22;44912;52.754;5.994;2024-02-15T05:26:14;12.00;99.90
59128;DHT22;44912;52.754;5.994;2024-02-15T05:28:42;12.00;99.90
59128;DHT22;44912;52.754;5.994;2024-02-15T05:31:20;12.00;99.90
59128;DHT22;44912;52.754;5.994;2024-02-15T05:33:53;12.00;99.90
59128;DHT22;44912;52.754;5.994;2024-02-15T05:36:20;12.00;99.90
59128;DHT22;44912;52.754;5.994;2024-02-15T05:38:49;12.00;99.90
59128;DHT22;44912;52.754;5.994;2024-02-15T05:41:15;12.00;99.90
59128;DHT22;44912;52.754;5.994;2024-02-15T05:43:41;12.00;99.90
59128;DHT22;44912;52.754;5.994;2024-02-15T05:46:08;12.00;99.90
59128;DHT22;44912;52.754;5.994;2024-02-15T05:48:37;12.00;99.90
59128;DHT22;44912;52.754;5.994;2024-02-15T05:51:04;12.00;99.90
59128;DHT22;44912;52.754;5.994;2024-02-15T05:53:30;12.00;99.90
59128;DHT22;44912;52.754;5.994;2024-02-15T05:55:58;12.00;99.90
59128;DHT22;44912;52.754;5.994;2024-02-15T05:58:24;12.00;99.90
59128;DHT22;44912;52.754;5.994;2024-02-15T06:00:50;12.10;99.90
59128;DHT22;44912;52.754;5.994;2024-02-15T06:03:17;12.10;99.90
59128;DHT22;44912;52.754;5.994;2024-02-15T06:05:43;12.10;99.90
59128;DHT22;44912;52.754;5.994;2024-02-15T06:08:10;12.10;99.90
59128;DHT22;44912;52.754;5.994;2024-02-15T06:10:39;12.10;99.90
59128;DHT22;44912;52.754;5.994;2024-02-15T06:13:05;12.10;99.90
59128;DHT22;44912;52.754;5.994;2024-02-15T06:15:31;12.10;99.90
59128;DHT22;44912;52.754;5.994;2024-02-15T06:17:57;12.10;99.90
59128;DHT22;44912;52.754;5.994;2024-02-15T06:20:23;12.10;99.90
59128;DHT22;44912;52.754;5.994;2024-02-15T06:22:50;12.10;99.90
59128;DHT22;44912;52.754;5.994;2024-02-15T06:25:17;12.10;99.90
59128;DHT22;44912;52.754;5.994;2024-02-15T06:27:46;12.10;99.90
59128;DHT22;44912;52.754;5.994;2024-02-15T06:30:13;12.10;99.90
59128;DHT22;44912;52.754;5.994;2024-02-15T06:32:57;12.10;99.90
59128;DHT22;44912;52.754;5.994;2024-02-15T06:35:42;12.10;99.90
59128;DHT22;44912;52.754;5.994;2024-02-15T06:38:26;12.10;99.90
59128;DHT22;44912;52.754;5.994;2024-02-15T06:41:11;12.10;99.90
59128;DHT22;44912;52.754;5.994;2024-02-15T06:43:37;12.10;99.90
59128;DHT22;44912;52.754;5.994;2024-02-15T06:46:06;12.10;99.90
59128;DHT22;44912;52.754;5.994;2024-02-15T06:48:31;12.10;99.90
59128;DHT22;44912;52.754;5.994;2024-02-15T06:50:57;12.10;99.90
59128;DHT22;44912;52.754;5.994;2024-02-15T06:53:23;12.10;99.90
59128;DHT22;44912;52.754;5.994;2024-02-15T06:55:49;12.10;99.90
59128;DHT22;44912;52.754;5.994;2024-02-15T06:58:16;12.10;99.90
59128;DHT22;44912;52.754;5.994;2024-02-15T07:00:45;12.10;99.90
59128;DHT22;44912;52.754;5.994;2024-02-15T07:03:11;12.10;99.90
59128;DHT22;44912;52.754;5.994;2024-02-15T07:05:37;12.10;99.90
59128;DHT22;44912;52.754;5.994;2024-02-15T07:08:07;12.10;99.90
59128;DHT22;44912;52.754;5.994;2024-02-15T07:10:37;12.10;99.90
59128;DHT22;44912;52.754;5.994;2024-02-15T07:13:04;12.10;99.90
59128;DHT22;44912;52.754;5.994;2024-02-15T07:15:29;12.10;99.90
59128;DHT22;44912;52.754;5.994;2024-02-15T07:17:58;12.10;99.90
59128;DHT22;44912;52.754;5.994;2024-02-15T07:20:24;12.10;99.90
59128;DHT22;44912;52.754;5.994;2024-02-15T07:22:51;12.10;99.90
59128;DHT22;44912;52.754;5.994;2024-02-15T07:25:16;12.10;99.90
59128;DHT22;44912;52.754;5.994;2024-02-15T07:27:43;12.10;99.90
59128;DHT22;44912;52.754;5.994;2024-02-15T07:30:09;12.10;99.90
59128;DHT22;44912;52.754;5.994;2024-02-15T07:32:35;12.10;99.90
59128;DHT22;44912;52.754;5.994;2024-02-15T07:35:01;12.20;99.90
59128;DHT22;44912;52.754;5.994;2024-02-15T07:37:27;12.10;99.90
59128;DHT22;44912;52.754;5.994;2024-02-15T07:39:54;12.20;99.90
59128;DHT22;44912;52.754;5.994;2024-02-15T07:42:20;12.20;99.90
59128;DHT22;44912;52.754;5.994;2024-02-15T07:44:46;12.10;99.90
59128;DHT22;44912;52.754;5.994;2024-02-15T07:47:11;12.20;99.90
59128;DHT22;44912;52.754;5.994;2024-02-15T07:49:37;12.20;99.90
59128;DHT22;44912;52.754;5.994;2024-02-15T07:52:03;12.20;99.90
59128;DHT22;44912;52.754;5.994;2024-02-15T07:54:30;12.20;99.90
59128;DHT22;44912;52.754;5.994;2024-02-15T07:56:56;12.20;99.90
59128;DHT22;44912;52.754;5.994;2024-02-15T07:59:23;12.20;99.90
59128;DHT22;44912;52.754;5.994;2024-02-15T08:01:49;12.20;99.90
59128;DHT22;44912;52.754;5.994;2024-02-15T08:04:19;12.20;99.90
59128;DHT22;44912;52.754;5.994;2024-02-15T08:06:46;12.20;99.90
59128;DHT22;44912;52.754;5.994;2024-02-15T08:09:16;12.20;99.90
59128;DHT22;44912;52.754;5.994;2024-02-15T08:11:43;12.20;99.90
59128;DHT22;44912;52.754;5.994;2024-02-15T08:14:09;12.20;99.90
59128;DHT22;44912;52.754;5.994;2024-02-15T08:16:37;12.20;99.90
59128;DHT22;44912;52.754;5.994;2024-02-15T08:19:06;12.30;99.90
59128;DHT22;44912;52.754;5.994;2024-02-15T08:21:33;12.30;99.90
59128;DHT22;44912;52.754;5.994;2024-02-15T08:24:01;12.30;99.90
59128;DHT22;44912;52.754;5.994;2024-02-15T08:26:35;12.30;99.90
59128;DHT22;44912;52.754;5.994;2024-02-15T08:29:03;12.30;99.90
59128;DHT22;44912;52.754;5.994;2024-02-15T08:31:29;12.30;99.90
59128;DHT22;44912;52.754;5.994;2024-02-15T08:33:57;12.30;99.90
59128;DHT22;44912;52.754;5.994;2024-02-15T08:36:23;12.30;99.90
59128;DHT22;44912;52.754;5.994;2024-02-15T08:38:49;12.30;99.90
59128;DHT22;44912;52.754;5.994;2024-02-15T08:41:15;12.30;99.90
59128;DHT22;44912;52.754;5.994;2024-02-15T08:43:43;12.40;99.90
59128;DHT22;44912;52.754;5.994;2024-02-15T08:46:09;12.30;99.90
59128;DHT22;44912;52.754;5.994;2024-02-15T08:48:35;12.40;99.90
59128;DHT22;44912;52.754;5.994;2024-02-15T08:51:02;12.40;99.90
59128;DHT22;44912;52.754;5.994;2024-02-15T08:53:27;12.40;99.90
59128;DHT22;44912;52.754;5.994;2024-02-15T08:55:53;12.40;99.90
59128;DHT22;44912;52.754;5.994;2024-02-15T08:58:19;12.40;99.90
59128;DHT22;44912;52.754;5.994;2024-02-15T09:00:46;12.40;99.90
59128;DHT22;44912;52.754;5.994;2024-02-15T09:03:12;12.40;99.90
59128;DHT22;44912;52.754;5.994;2024-02-15T09:05:41;12.40;99.90
59128;DHT22;44912;52.754;5.994;2024-02-15T09:08:07;12.40;99.90
59128;DHT22;44912;52.754;5.994;2024-02-15T09:10:33;12.40;99.90
59128;DHT22;44912;52.754;5.994;2024-02-15T09:12:59;12.40;99.90
59128;DHT22;44912;52.754;5.994;2024-02-15T09:15:24;12.50;99.90
59128;DHT22;44912;52.754;5.994;2024-02-15T09:17:50;12.50;99.90
59128;DHT22;44912;52.754;5.994;2024-02-15T09:20:17;12.50;99.90
59128;DHT22;44912;52.754;5.994;2024-02-15T09:22:52;12.50;99.90
59128;DHT22;44912;52.754;5.994;2024-02-15T09:25:18;12.50;99.90
59128;DHT22;44912;52.754;5.994;2024-02-15T09:27:45;12.50;99.90
59128;DHT22;44912;52.754;5.994;2024-02-15T09:30:11;12.50;99.90
59128;DHT22;44912;52.754;5.994;2024-02-15T09:32:40;12.60;99.90
59128;DHT22;44912;52.754;5.994;2024-02-15T09:35:06;12.60;99.90
59128;DHT22;44912;52.754;5.994;2024-02-15T09:37:44;12.60;99.90
59128;DHT22;44912;52.754;5.994;2024-02-15T09:40:11;12.70;99.90
59128;DHT22;44912;52.754;5.994;2024-02-15T09:42:38;12.70;99.90
59128;DHT22;44912;52.754;5.994;2024-02-15T09:45:05;12.80;99.90
59128;DHT22;44912;52.754;5.994;2024-02-15T09:47:35;12.70;99.90
59128;DHT22;44912;52.754;5.994;2024-02-15T09:50:07;12.80;99.90
59128;DHT22;44912;52.754;5.994;2024-02-15T09:52:34;12.80;99.90
59128;DHT22;44912;52.754;5.994;2024-02-15T09:55:04;12.90;99.90
59128;DHT22;44912;52.754;5.994;2024-02-15T09:57:30;12.90;99.90
59128;DHT22;44912;52.754;5.994;2024-02-15T10:00:00;12.90;99.90
59128;DHT22;44912;52.754;5.994;2024-02-15T10:02:26;13.00;99.90
59128;DHT22;44912;52.754;5.994;2024-02-15T10:04:53;13.00;99.90
59128;DHT22;44912;52.754;5.994;2024-02-15T10:07:25;13.00;99.90
59128;DHT22;44912;52.754;5.994;2024-02-15T10:09:53;13.00;99.90
59128;DHT22;44912;52.754;5.994;2024-02-15T10:12:19;13.00;99.90
59128;DHT22;44912;52.754;5.994;2024-02-15T10:14:50;13.00;99.90
59128;DHT22;44912;52.754;5.994;2024-02-15T10:17:19;13.00;99.90
59128;DHT22;44912;52.754;5.994;2024-02-15T10:19:48;13.00;99.90
59128;DHT22;44912;52.754;5.994;2024-02-15T10:22:27;13.00;99.90
59128;DHT22;44912;52.754;5.994;2024-02-15T10:25:10;13.00;99.90
59128;DHT22;44912;52.754;5.994;2024-02-15T10:27:36;13.10;99.90
59128;DHT22;44912;52.754;5.994;2024-02-15T10:30:17;13.00;99.90
59128;DHT22;44912;52.754;5.994;2024-02-15T10:32:43;13.00;99.90
59128;DHT22;44912;52.754;5.994;2024-02-15T10:35:10;13.10;99.90
59128;DHT22;44912;52.754;5.994;2024-02-15T10:37:41;13.00;99.90
59128;DHT22;44912;52.754;5.994;2024-02-15T10:40:07;13.00;99.90
59128;DHT22;44912;52.754;5.994;2024-02-15T10:42:36;13.10;99.90
59128;DHT22;44912;52.754;5.994;2024-02-15T10:45:05;13.10;99.90
59128;DHT22;44912;52.754;5.994;2024-02-15T10:47:34;13.00;99.90
59128;DHT22;44912;52.754;5.994;2024-02-15T10:50:02;13.10;99.90
59128;DHT22;44912;52.754;5.994;2024-02-15T10:52:31;13.00;99.90
59128;DHT22;44912;52.754;5.994;2024-02-15T10:55:03;13.00;99.90
59128;DHT22;44912;52.754;5.994;2024-02-15T10:57:31;13.00;99.90
59128;DHT22;44912;52.754;5.994;2024-02-15T10:59:59;13.00;99.90
59128;DHT22;44912;52.754;5.994;2024-02-15T11:05:19;13.00;99.90
59128;DHT22;44912;52.754;5.994;2024-02-15T11:07:49;13.10;99.90
59128;DHT22;44912;52.754;5.994;2024-02-15T11:10:14;13.00;99.90
59128;DHT22;44912;52.754;5.994;2024-02-15T11:12:43;13.00;99.90
59128;DHT22;44912;52.754;5.994;2024-02-15T11:15:09;13.00;99.90
59128;DHT22;44912;52.754;5.994;2024-02-15T11:20:03;13.00;99.90
59128;DHT22;44912;52.754;5.994;2024-02-15T11:22:34;13.00;99.90
59128;DHT22;44912;52.754;5.994;2024-02-15T11:25:03;13.10;99.90
59128;DHT22;44912;52.754;5.994;2024-02-15T11:27:36;13.10;99.90
59128;DHT22;44912;52.754;5.994;2024-02-15T11:30:05;13.10;99.90
59128;DHT22;44912;52.754;5.994;2024-02-15T11:32:49;13.10;99.90
59128;DHT22;44912;52.754;5.994;2024-02-15T11:35:19;13.20;99.90
59128;DHT22;44912;52.754;5.994;2024-02-15T11:40:28;13.20;99.90
59128;DHT22;44912;52.754;5.994;2024-02-15T11:42:59;13.20;99.90
59128;DHT22;44912;52.754;5.994;2024-02-15T11:45:27;13.20;99.90
59128;DHT22;44912;52.754;5.994;2024-02-15T11:48:00;13.20;99.90
59128;DHT22;44912;52.754;5.994;2024-02-15T11:50:27;13.20;99.90
59128;DHT22;44912;52.754;5.994;2024-02-15T11:53:02;13.20;99.90
59128;DHT22;44912;52.754;5.994;2024-02-15T11:55:31;13.30;99.90
59128;DHT22;44912;52.754;5.994;2024-02-15T11:58:02;13.30;99.90
59128;DHT22;44912;52.754;5.994;2024-02-15T12:00:38;13.30;99.90
59128;DHT22;44912;52.754;5.994;2024-02-15T12:03:23;13.30;99.90
59128;DHT22;44912;52.754;5.994;2024-02-15T12:06:08;13.30;99.90
59128;DHT22;44912;52.754;5.994;2024-02-15T12:08:53;13.30;99.90
59128;DHT22;44912;52.754;5.994;2024-02-15T12:11:38;13.30;99.90
59128;DHT22;44912;52.754;5.994;2024-02-15T12:14:23;13.30;99.90
59128;DHT22;44912;52.754;5.994;2024-02-15T12:17:08;13.30;99.90
59128;DHT22;44912;52.754;5.994;2024-02-15T12:19:54;13.30;99.90
59128;DHT22;44912;52.754;5.994;2024-02-15T12:22:28;13.30;99.90
59128;DHT22;44912;52.754;5.994;2024-02-15T12:24:59;13.30;99.90
59128;DHT22;44912;52.754;5.994;2024-02-15T12:27:26;13.30;99.90
59128;DHT22;44912;52.754;5.994;2024-02-15T12:29:59;13.30;99.90
59128;DHT22;44912;52.754;5.994;2024-02-15T12:32:26;13.30;99.90
59128;DHT22;44912;52.754;5.994;2024-02-15T12:34:53;13.30;99.90
59128;DHT22;44912;52.754;5.994;2024-02-15T12:37:20;13.30;99.90
59128;DHT22;44912;52.754;5.994;2024-02-15T12:39:49;13.20;99.90
59128;DHT22;44912;52.754;5.994;2024-02-15T12:42:18;13.20;99.90
59128;DHT22;44912;52.754;5.994;2024-02-15T12:44:46;13.20;99.90
59128;DHT22;44912;52.754;5.994;2024-02-15T12:47:21;13.20;99.90
59128;DHT22;44912;52.754;5.994;2024-02-15T12:49:48;13.20;99.90
59128;DHT22;44912;52.754;5.994;2024-02-15T12:55:10;13.20;99.90
59128;DHT22;44912;52.754;5.994;2024-02-15T12:57:36;13.20;99.90
59128;DHT22;44912;52.754;5.994;2024-02-15T13:00:03;13.20;99.90
59128;DHT22;44912;52.754;5.994;2024-02-15T13:02:39;13.20;99.90
59128;DHT22;44912;52.754;5.994;2024-02-15T13:05:06;13.20;99.90
59128;DHT22;44912;52.754;5.994;2024-02-15T13:07:34;13.20;99.90
59128;DHT22;44912;52.754;5.994;2024-02-15T13:10:01;13.20;99.90
59128;DHT22;44912;52.754;5.994;2024-02-15T13:12:26;13.20;99.90
59128;DHT22;44912;52.754;5.994;2024-02-15T13:14:53;13.30;99.90
59128;DHT22;44912;52.754;5.994;2024-02-15T13:17:20;13.30;99.90
59128;DHT22;44912;52.754;5.994;2024-02-15T13:19:46;13.30;99.90
59128;DHT22;44912;52.754;5.994;2024-02-15T13:22:14;13.30;99.90
59128;DHT22;44912;52.754;5.994;2024-02-15T13:24:42;13.30;99.90
59128;DHT22;44912;52.754;5.994;2024-02-15T13:27:07;13.40;99.90
59128;DHT22;44912;52.754;5.994;2024-02-15T13:29:40;13.40;99.90
59128;DHT22;44912;52.754;5.994;2024-02-15T13:32:07;13.40;99.90
59128;DHT22;44912;52.754;5.994;2024-02-15T13:34:32;13.40;99.90
59128;DHT22;44912;52.754;5.994;2024-02-15T13:36:58;13.40;99.90
59128;DHT22;44912;52.754;5.994;2024-02-15T13:39:27;13.40;99.90
59128;DHT22;44912;52.754;5.994;2024-02-15T13:42:01;13.40;99.90
59128;DHT22;44912;52.754;5.994;2024-02-15T13:44:27;13.50;99.90
59128;DHT22;44912;52.754;5.994;2024-02-15T13:46:53;13.50;99.90
59128;DHT22;44912;52.754;5.994;2024-02-15T13:49:21;13.50;99.90
59128;DHT22;44912;52.754;5.994;2024-02-15T13:51:47;13.50;99.90
59128;DHT22;44912;52.754;5.994;2024-02-15T13:54:12;13.50;99.90
59128;DHT22;44912;52.754;5.994;2024-02-15T13:56:38;13.50;99.90
59128;DHT22;44912;52.754;5.994;2024-02-15T13:59:06;13.50;99.90
59128;DHT22;44912;52.754;5.994;2024-02-15T14:01:31;13.60;99.90
59128;DHT22;44912;52.754;5.994;2024-02-15T14:03:57;13.60;99.90
59128;DHT22;44912;52.754;5.994;2024-02-15T14:06:22;13.60;99.90
59128;DHT22;44912;52.754;5.994;2024-02-15T14:08:49;13.60;99.90
59128;DHT22;44912;52.754;5.994;2024-02-15T14:11:16;13.70;99.90
59128;DHT22;44912;52.754;5.994;2024-02-15T14:13:43;13.80;99.90
59128;DHT22;44912;52.754;5.994;2024-02-15T14:16:08;13.80;99.90
59128;DHT22;44912;52.754;5.994;2024-02-15T14:18:34;13.80;99.90
59128;DHT22;44912;52.754;5.994;2024-02-15T14:21:00;13.90;99.90
59128;DHT22;44912;52.754;5.994;2024-02-15T14:23:26;13.90;99.90
59128;DHT22;44912;52.754;5.994;2024-02-15T14:25:53;13.90;99.90
59128;DHT22;44912;52.754;5.994;2024-02-15T14:28:19;13.90;99.90
59128;DHT22;44912;52.754;5.994;2024-02-15T14:30:45;13.90;99.90
59128;DHT22;44912;52.754;5.994;2024-02-15T14:33:29;13.90;99.90
59128;DHT22;44912;52.754;5.994;2024-02-15T14:35:55;13.90;99.90
59128;DHT22;44912;52.754;5.994;2024-02-15T14:38:21;13.90;99.90
59128;DHT22;44912;52.754;5.994;2024-02-15T14:40:50;13.90;99.90
59128;DHT22;44912;52.754;5.994;2024-02-15T14:43:21;13.90;99.90
59128;DHT22;44912;52.754;5.994;2024-02-15T14:45:47;13.90;99.90
59128;DHT22;44912;52.754;5.994;2024-02-15T14:48:13;13.90;99.90
59128;DHT22;44912;52.754;5.994;2024-02-15T14:50:39;13.90;99.90
59128;DHT22;44912;52.754;5.994;2024-02-15T14:53:05;13.90;99.90
59128;DHT22;44912;52.754;5.994;2024-02-15T14:55:36;13.90;99.90
59128;DHT22;44912;52.754;5.994;2024-02-15T14:58:05;13.90;99.90
59128;DHT22;44912;52.754;5.994;2024-02-15T15:00:35;13.90;99.90
59128;DHT22;44912;52.754;5.994;2024-02-15T15:03:03;13.90;99.90
59128;DHT22;44912;52.754;5.994;2024-02-15T15:05:29;13.90;99.90
59128;DHT22;44912;52.754;5.994;2024-02-15T15:08:13;14.00;99.90
59128;DHT22;44912;52.754;5.994;2024-02-15T15:10:57;14.00;99.90
59128;DHT22;44912;52.754;5.994;2024-02-15T15:13:41;14.00;99.90
59128;DHT22;44912;52.754;5.994;2024-02-15T15:16:07;14.00;99.90
59128;DHT22;44912;52.754;5.994;2024-02-15T15:18:33;14.00;99.90
59128;DHT22;44912;52.754;5.994;2024-02-15T15:21:02;14.00;99.90
59128;DHT22;44912;52.754;5.994;2024-02-15T15:23:28;14.00;99.90
59128;DHT22;44912;52.754;5.994;2024-02-15T15:26:00;14.00;99.90
59128;DHT22;44912;52.754;5.994;2024-02-15T15:28:27;13.90;99.90
59128;DHT22;44912;52.754;5.994;2024-02-15T15:30:53;13.90;99.90
59128;DHT22;44912;52.754;5.994;2024-02-15T15:33:18;13.90;99.90
59128;DHT22;44912;52.754;5.994;2024-02-15T15:35:44;13.80;99.90
59128;DHT22;44912;52.754;5.994;2024-02-15T15:38:11;13.80;99.90
59128;DHT22;44912;52.754;5.994;2024-02-15T15:40:36;13.80;99.90
59128;DHT22;44912;52.754;5.994;2024-02-15T15:43:02;13.70;99.90
59128;DHT22;44912;52.754;5.994;2024-02-15T15:45:29;13.70;99.90
59128;DHT22;44912;52.754;5.994;2024-02-15T15:47:54;13.80;99.90